BLK weather

Blackpool International Airport
Blackpool, England, United Kingdom

Public forecast

Using degrees Celsius for public forecast. Weather courtesy of forecast.io.

METAR (pilot weather report)

Report is more than 6 hours old.

Retrieved 2019/04/19 19:50 UTC (9 hours ago):

EGNH 191950Z 04005KT 9999 FEW037 17/08 Q1031

TAF (pilot weather forecast)

Forecast is more than 12 hours old.

Retrieved 2016/01/23 12:00 UTC (3 years ago):

TAF EGNH 231059Z 2312/2321 14012KT 9999 FEW030 BECMG 2316/2319 BKN014 TEMPO 2316/2321 6000 RA PROB30 2318/2321 BKN008